Da?oguz Airport


Codes: UTAT/TAZ
Name: Da?oguz Airport
City: Da?oguz
Country: Turkmenistan
Elevation: 272 ft.

Photos at Da?oguz Airport


   Photos courtesy of SpottingLog. You can add your own sightings and photos by signing up for a free trial today.



No photos found.

Weather at Da?oguz Airport


Time (UTC)DescriptionTempratureWindCloud coverageVisibilityPressureHumidity
18-Apr-2024 00:00Clear Sky16°C9 mph, E0%10000m1017hPa44%
18-Apr-2024 03:00Clear Sky18°C9 mph, NE0%10000m1017hPa38%
18-Apr-2024 06:00Clear Sky23°C16 mph, E0%10000m1018hPa28%
18-Apr-2024 09:00Clear Sky29°C18 mph, NE0%10000m1016hPa16%
18-Apr-2024 12:00Clear Sky29°C20 mph, NE0%10000m1014hPa16%
18-Apr-2024 15:00Clear Sky27°C16 mph, NE0%10000m1013hPa22%
18-Apr-2024 18:00Clear Sky24°C13 mph, NE0%10000m1013hPa27%
18-Apr-2024 21:00Clear Sky22°C11 mph, NE0%10000m1012hPa34%
19-Apr-2024 00:00Clear Sky21°C11 mph, NE0%10000m1012hPa39%
19-Apr-2024 03:00Clear Sky23°C16 mph, NE0%10000m1012hPa34%
19-Apr-2024 06:00Clear Sky28°C18 mph, NE0%10000m1011hPa22%
19-Apr-2024 09:00Clear Sky30°C20 mph, NE0%10000m1010hPa17%
19-Apr-2024 12:00Clear Sky30°C20 mph, NE0%10000m1008hPa14%
19-Apr-2024 15:00Clear Sky27°C13 mph, NE0%10000m1008hPa16%
19-Apr-2024 18:00Clear Sky25°C13 mph, NE0%10000m1008hPa21%
19-Apr-2024 21:00Clear Sky22°C11 mph, NE0%10000m1008hPa24%
20-Apr-2024 00:00Clear Sky21°C11 mph, NE0%10000m1008hPa27%
20-Apr-2024 03:00Clear Sky23°C13 mph, NE0%10000m1009hPa26%
20-Apr-2024 06:00Clear Sky28°C13 mph, NE0%10000m1009hPa21%
20-Apr-2024 09:00Clear Sky31°C11 mph, E0%10000m1008hPa16%
20-Apr-2024 12:00Few Clouds31°C11 mph, NE12%10000m1007hPa16%
20-Apr-2024 15:00Broken Clouds28°C9 mph, NE84%10000m1007hPa18%
20-Apr-2024 18:00Broken Clouds25°C9 mph, NE54%10000m1007hPa21%
20-Apr-2024 21:00Clear Sky23°C4 mph, NE3%10000m1007hPa24%
21-Apr-2024 00:00Clear Sky22°C4 mph, NE4%10000m1007hPa26%
21-Apr-2024 03:00Clear Sky24°C4 mph, E5%10000m1007hPa25%
21-Apr-2024 06:00Clear Sky30°C9 mph, SE2%10000m1007hPa15%
21-Apr-2024 09:00Clear Sky32°C9 mph, S0%10000m1007hPa12%
21-Apr-2024 12:00Clear Sky32°C11 mph, SW0%10000m1006hPa11%
21-Apr-2024 15:00Clear Sky29°C9 mph, W0%10000m1007hPa15%
21-Apr-2024 18:00Clear Sky24°C13 mph, N0%10000m1008hPa35%
21-Apr-2024 21:00Clear Sky22°C9 mph, N0%10000m1008hPa42%
22-Apr-2024 00:00Clear Sky20°C0 mph, NW2%10000m1008hPa42%
22-Apr-2024 03:00Clear Sky24°C4 mph, S7%10000m1009hPa30%
22-Apr-2024 06:00Few Clouds30°C7 mph, SW22%10000m1009hPa16%
22-Apr-2024 09:00Few Clouds33°C11 mph, W14%10000m1008hPa10%
22-Apr-2024 12:00Clear Sky33°C7 mph, W10%10000m1008hPa10%
22-Apr-2024 15:00Scattered Clouds29°C7 mph, N37%10000m1008hPa15%
22-Apr-2024 18:00Broken Clouds25°C13 mph, NE69%10000m1009hPa27%
22-Apr-2024 21:00Overcast Clouds24°C2 mph, N93%10000m1008hPa29%